x

Buoy E01 - Central Maine Shelf (44032) Wave Buoy

8:04pm - Fri 24th Feb 2017 All times are EST. -5 hours from GMT.

  • Sig Wave height 4.3ft
  • Peak Period 5s
  • Wind
    20mph, 25mph gusts
  • Sea Temp 41°f
  • Air Temp 46°f
  • Sea Pressure 1010.7mb
  • Buoy E01 - Central Maine Shelf
  • Buoy E01 - Central Maine Shelf

More Historic Weather Station data

Upgrade to MSW Pro to gain access to the past 30 days of data for over 8000 Wavebouys and Weather Stations around the globe.

Join Pro

Comparision Forecast

View Surf forecast
   
Fri 02/24 8:04pm 4.5ft 5s 20 25 mph 1010.7mb 41f 46f
7:04pm 3.5ft 11s 16 18 mph 1011mb 41f 46f
6:04pm 3.5ft 11s 7
mph
1011.3mb 41f 45f
5:04pm 3.5ft 11s 7 9 mph 1011.2mb 41f 44f
4:04pm 3.5ft 11s 11
mph
1011.2mb 41f 44f
3:04pm 3.5ft 11s 7 9 mph 1011.7mb 40f 42f
2:04pm 4ft 11s 7 9 mph 1012.2mb 40f 42f
1:04pm 3.5ft 11s 9
mph
1013mb 40f 42f
12:04pm 3.5ft 11s 4 7 mph 1012.7mb 40f 42f
11:04am 3.5ft 11s 4 7 mph 1013.3mb 40f 42f
10:04am 4ft 11s 4 7 mph 1014.2mb 40f 42f
9:04am 3.5ft 11s 7 9 mph 1013.5mb 39f 42f
8:04am 4.5ft 6s 7 9 mph 1013.1mb 39f 41f
7:04am 4.5ft 6s 2 4 mph 1012.8mb 39f 40f
6:04am 3.5ft 6s 2 4 mph 1012.4mb 39f 40f
5:04am 4ft 6s 7 9 mph 1012.3mb 39f 41f
4:04am 4ft 6s 7 9 mph 1011.3mb 39f 41f
3:04am 4.5ft 6s 9
mph
1010.6mb 39f 41f
2:04am 5ft 5s 11 13 mph 1010.2mb 39f 43f
1:04am 6ft 6s 18 20 mph 1009.3mb 40f 45f
12:04am 7.5ft 6s 18 22 mph 1008.9mb 40f 45f
Thu 02/23 11:04pm 7ft 5s 20 25 mph 1008.1mb 40f 45f
10:04pm 5.5ft 5s 22 25 mph 1007.6mb 41f 45f
9:04pm 5ft 5s 22 27 mph 1007.1mb 41f 46f
8:04pm 4.5ft 5s 22 27 mph 1006.7mb 41f 45f
7:04pm 4.5ft 5s 20 25 mph 1006.5mb 41f 45f
6:04pm 4.5ft 5s 16 20 mph 1006.5mb 41f 44f
5:04pm 3.5ft 5s 18 20 mph 1006.1mb 40f 44f
4:04pm 4.5ft 11s 16 18 mph 1005.9mb 39f 44f
3:04pm 2.5ft 4s 9 11 mph 1007.1mb 39f 42f
2:04pm 4ft 11s 11 13 mph 1007.6mb 39f 41f
1:04pm 4.5ft 11s 11 13 mph 1008.5mb 41f 40f
12:04pm 4.5ft 11s 13 16 mph 1009.3mb 41f 40f
11:04am  -   -  13 16 mph 1010.1mb 41f 41f
10:04am 3ft 11s 13 16 mph 1010.3mb 41f 42f
9:04am 3.5ft 11s 11
mph
1010.8mb 40f 42f
8:04am 3.5ft 11s 7 9 mph 1011.3mb 40f 42f
7:04am 3.5ft 11s 7 9 mph 1011.2mb 39f 41f
6:04am 2.5ft 11s 9 11 mph 1010.9mb 39f 41f
5:04am 2.5ft 8s 7 9 mph 1010.9mb 39f 40f
Wed 02/22 5:04am 5ft 5s 16 18 mph 1016.2mb 38f 39f
4:04am 4.5ft 5s 16 18 mph 1016.5mb 39f 39f
3:04am 5ft 5s 18 22 mph 1016.8mb 38f 40f
2:04am 4.5ft 5s 18 22 mph 1017.2mb 38f 40f
1:04am 4ft 5s 18 22 mph 1018.1mb 38f 40f
12:04am 3.5ft 5s 20 25 mph 1018.6mb 38f 39f
Tue 02/21 11:04pm 3.5ft 4s 18 22 mph 1019.7mb 38f 38f
10:04pm 2.5ft 4s 16 20 mph 1020.8mb 38f 37f
9:04pm 2ft 3s 16 18 mph 1021.1mb 38f 37f
8:04pm 2ft 5s 13 16 mph 1021.7mb 38f 36f
7:04pm 2ft 5s 11 13 mph 1022.6mb 38f 35f
6:04pm 1.6ft 6s 9 11 mph 1023mb 38f 34f
5:04pm 1.6ft 8s 9 11 mph 1023.3mb 39f 34f
4:04pm 1.6ft 5s 9 11 mph 1024mb 39f 33f
3:04pm 1.3ft 5s 7 9 mph 1024.9mb 39f 33f
2:04pm 2ft 5s 4 7 mph 1025.6mb 39f 33f
1:04pm 2ft 6s 4 7 mph 1026.1mb 38f 32f
12:04pm 2ft 5s 4 7 mph 1026.9mb 38f 31f
11:04am 2.5ft 6s 4 7 mph 1028.2mb 38f 31f
10:04am 2.5ft 6s 11 13 mph 1028mb 38f 30f
9:04am 2.5ft 5s 13 18 mph 1028.5mb 38f 30f
8:04am 2.5ft 5s 13 16 mph 1028.5mb 38f 30f
7:04am 2.5ft 6s 13 16 mph 1028.6mb 38f 31f
6:04am 3ft 6s 16 20 mph 1028.2mb 38f 31f
5:04am 3ft 5s 13 16 mph 1027.6mb 38f 31f
4:04am 3ft 5s 16 18 mph 1027.7mb 38f 31f
3:04am 3ft 5s 18 20 mph 1027.9mb 38f 32f